createdAt,value
2022-11-04T00:04:16.813Z,90.43
2022-11-04T00:09:47.463Z,90.50
2022-11-04T00:12:35.686Z,89.55
2022-11-04T00:18:06.625Z,90.11
2022-11-04T00:21:23.450Z,88.62
2022-11-04T00:27:15.009Z,86.28
2022-11-04T00:30:12.532Z,86.56
2022-11-04T00:35:50.717Z,84.91
2022-11-04T00:41:30.533Z,83.95
2022-11-04T00:47:10.948Z,83.37
2022-11-04T00:49:59.783Z,83.34
2022-11-04T00:52:50.814Z,83.38
2022-11-04T00:58:24.052Z,82.25
2022-11-04T01:01:16.414Z,82.17
2022-11-04T01:07:05.252Z,82.02
2022-11-04T01:09:53.783Z,80.66
2022-11-04T01:12:43.205Z,81.29
2022-11-04T01:15:33.855Z,79.45
2022-11-04T01:21:09.962Z,79.30
2022-11-04T01:23:58.480Z,79.05
2022-11-04T01:26:46.413Z,79.33
2022-11-04T01:29:35.894Z,79.88
2022-11-04T01:35:13.346Z,80.38
2022-11-04T01:40:56.930Z,80.56
2022-11-04T01:46:41.991Z,80.15
2022-11-04T01:55:17.348Z,80.30
2022-11-04T02:03:42.364Z,79.65
2022-11-04T02:12:22.868Z,82.80
2022-11-04T02:18:10.540Z,83.58
2022-11-04T02:24:59.811Z,84.48
2022-11-04T02:30:53.306Z,85.94
2022-11-04T02:39:23.343Z,87.40
2022-11-04T02:44:58.099Z,87.38
2022-11-04T02:50:32.640Z,86.82
2022-11-04T02:56:03.492Z,87.05
2022-11-04T03:01:38.712Z,88.14
2022-11-04T03:04:30.476Z,87.92
2022-11-04T03:07:22.392Z,87.79
2022-11-04T03:13:06.290Z,88.38
2022-11-04T03:24:29.580Z,89.51
2022-11-04T03:30:10.462Z,88.44
2022-11-04T03:38:33.777Z,88.57
2022-11-04T03:41:25.740Z,89.13
2022-11-04T03:44:14.165Z,90.18
2022-11-04T03:49:54.639Z,87.63
2022-11-04T03:55:34.210Z,87.23
2022-11-04T04:01:36.503Z,86.72
2022-11-04T04:07:19.156Z,86.04
2022-11-04T04:13:03.664Z,86.34
2022-11-04T04:18:41.562Z,85.96
2022-11-04T04:27:24.169Z,86.80
2022-11-04T04:35:43.622Z,86.99
2022-11-04T04:41:37.705Z,87.90
2022-11-04T04:47:15.984Z,87.39
2022-11-04T04:50:08.786Z,86.94
2022-11-04T04:53:00.950Z,87.48
2022-11-04T04:55:57.342Z,86.76
2022-11-04T05:01:41.138Z,86.59
2022-11-04T05:07:19.155Z,85.63
2022-11-04T05:10:09.427Z,85.26
2022-11-04T05:13:15.410Z,84.78
2022-11-04T05:18:54.311Z,84.65
2022-11-04T05:21:50.890Z,84.86
2022-11-04T05:27:27.457Z,84.45
2022-11-04T05:33:04.933Z,85.03
2022-11-04T05:38:39.667Z,83.88
2022-11-04T05:44:16.329Z,84.32
2022-11-04T05:49:55.086Z,83.78
2022-11-04T05:55:31.038Z,82.38
2022-11-04T06:04:00.724Z,83.46
2022-11-04T06:09:40.260Z,82.90
2022-11-04T06:15:15.297Z,81.47
2022-11-04T06:20:52.681Z,82.31
2022-11-04T06:26:30.628Z,82.22
2022-11-04T06:32:01.733Z,81.53
2022-11-04T06:37:30.461Z,81.08
2022-11-04T06:40:18.788Z,80.61
2022-11-04T06:45:55.328Z,81.47
2022-11-04T06:51:32.216Z,81.51
2022-11-04T06:57:08.966Z,81.74
2022-11-04T07:02:39.637Z,81.08
2022-11-04T07:08:12.849Z,80.73
2022-11-04T07:11:02.237Z,81.53
2022-11-04T07:16:32.416Z,80.31
2022-11-04T07:19:21.056Z,80.38
2022-11-04T07:25:00.347Z,78.95
2022-11-04T07:30:31.185Z,77.91
2022-11-04T07:36:24.831Z,77.59
2022-11-04T07:39:14.528Z,77.40
2022-11-04T07:42:05.341Z,77.42
2022-11-04T07:50:46.126Z,75.58
2022-11-04T07:56:14.746Z,76.02
2022-11-04T08:01:53.964Z,75.48
2022-11-04T08:04:43.055Z,74.69
2022-11-04T08:10:39.461Z,74.24
2022-11-04T08:16:16.730Z,73.09
2022-11-04T08:22:08.100Z,74.11
2022-11-04T08:27:46.704Z,73.18
2022-11-04T08:30:35.179Z,72.49
2022-11-04T08:36:19.204Z,73.36
2022-11-04T08:41:55.000Z,72.95
2022-11-04T08:47:30.193Z,70.55
2022-11-04T08:53:02.044Z,73.02
2022-11-04T08:58:38.428Z,73.32
2022-11-04T09:04:07.890Z,72.95
2022-11-04T09:12:24.012Z,70.67
2022-11-04T09:15:13.571Z,69.25
2022-11-04T09:20:43.508Z,69.48
2022-11-04T09:26:20.413Z,68.85
2022-11-04T09:34:41.767Z,68.14
2022-11-04T09:40:20.016Z,66.61
2022-11-04T09:45:54.789Z,65.35
2022-11-04T09:51:53.720Z,63.70
2022-11-04T09:57:21.252Z,62.28
2022-11-04T10:00:17.078Z,62.46
2022-11-04T10:08:56.967Z,61.43
2022-11-04T10:14:49.213Z,60.60
2022-11-04T10:18:00.906Z,61.20
2022-11-04T10:26:27.945Z,61.42
2022-11-04T10:32:07.451Z,61.57
2022-11-04T10:34:59.705Z,60.64
2022-11-04T10:40:53.933Z,61.43
2022-11-04T10:43:43.188Z,61.34
2022-11-04T10:46:38.771Z,62.04
2022-11-04T10:52:38.876Z,60.69
2022-11-04T11:01:29.672Z,62.39
2022-11-04T11:07:18.967Z,62.91
2022-11-04T11:15:42.381Z,61.74
2022-11-04T11:21:20.844Z,63.90
2022-11-04T11:29:55.873Z,62.97
2022-11-04T11:32:49.009Z,63.42
2022-11-04T11:38:34.267Z,62.70
2022-11-04T11:41:26.215Z,63.47
2022-11-04T11:47:43.230Z,64.99
2022-11-04T11:53:19.649Z,65.00
2022-11-04T12:02:36.656Z,63.69
2022-11-04T12:13:54.427Z,62.14
2022-11-04T12:19:35.643Z,63.01
2022-11-04T12:25:35.841Z,62.90
2022-11-04T12:31:16.382Z,63.06
2022-11-04T12:40:05.751Z,58.90
2022-11-04T12:45:55.933Z,60.01
2022-11-04T12:49:11.738Z,58.85
2022-11-04T12:52:02.682Z,59.79
2022-11-04T13:00:31.471Z,59.81
2022-11-04T13:06:10.108Z,60.22
2022-11-04T13:11:50.429Z,62.06
2022-11-04T13:14:43.568Z,61.43
2022-11-04T13:17:34.467Z,62.36
2022-11-04T13:23:25.525Z,61.39
2022-11-04T13:26:16.289Z,60.88
2022-11-04T13:29:08.996Z,60.77
2022-11-04T13:34:47.978Z,62.26
2022-11-04T13:37:43.010Z,62.30
2022-11-04T13:43:41.924Z,61.41
2022-11-04T13:46:31.703Z,63.01
2022-11-04T13:49:26.916Z,61.88
2022-11-04T13:55:08.386Z,60.82
2022-11-04T14:00:46.753Z,59.56
2022-11-04T14:03:52.483Z,61.00
2022-11-04T14:06:53.131Z,61.24
2022-11-04T14:12:56.346Z,59.72
2022-11-04T14:18:52.837Z,58.04
2022-11-04T14:25:04.231Z,58.51
2022-11-04T14:27:54.396Z,59.40
2022-11-04T14:33:50.141Z,59.00
2022-11-04T14:36:39.125Z,59.92
2022-11-04T14:42:09.684Z,59.55
2022-11-04T14:47:44.677Z,61.09
2022-11-04T14:56:09.655Z,60.90
2022-11-04T15:01:44.899Z,61.95
2022-11-04T15:07:35.294Z,62.87
2022-11-04T15:13:13.972Z,64.71
2022-11-04T15:18:49.683Z,65.47
2022-11-04T15:21:41.006Z,66.47
2022-11-04T15:27:21.273Z,67.80
2022-11-04T15:36:19.901Z,69.75
2022-11-04T15:39:11.540Z,70.26
2022-11-04T15:42:20.322Z,70.85
2022-11-04T15:48:33.531Z,71.76
2022-11-04T15:51:26.056Z,72.45
2022-11-04T15:54:23.165Z,73.61
2022-11-04T16:00:00.510Z,73.48
2022-11-04T16:05:39.748Z,72.71
2022-11-04T16:08:35.996Z,73.40
2022-11-04T16:11:39.987Z,73.99
2022-11-04T16:14:37.846Z,71.44
2022-11-04T16:20:19.657Z,72.80
2022-11-04T16:26:05.194Z,75.04
2022-11-04T16:28:55.617Z,75.67
2022-11-04T16:31:44.313Z,76.28
2022-11-04T16:37:22.838Z,74.34
2022-11-04T16:40:15.783Z,74.89
2022-11-04T16:45:54.007Z,75.14
2022-11-04T16:51:35.525Z,76.59
2022-11-04T16:57:05.401Z,76.25
2022-11-04T16:59:56.164Z,77.37
2022-11-04T17:05:38.277Z,77.40
2022-11-04T17:11:14.949Z,76.52
2022-11-04T17:14:03.333Z,76.77
2022-11-04T17:19:39.195Z,77.90
2022-11-04T17:22:27.191Z,77.37
2022-11-04T17:28:10.850Z,77.65
2022-11-04T17:31:00.025Z,79.42
2022-11-04T17:36:33.622Z,80.17
2022-11-04T17:42:25.463Z,80.75
2022-11-04T17:48:04.963Z,82.19
2022-11-04T17:50:53.792Z,82.92
2022-11-04T17:56:28.953Z,81.51
2022-11-04T17:59:24.420Z,81.76
2022-11-04T18:05:05.608Z,81.10
2022-11-04T18:10:45.920Z,82.55
2022-11-04T18:13:37.065Z,82.15
2022-11-04T18:19:14.122Z,83.50
2022-11-04T18:22:03.986Z,84.24
2022-11-04T18:24:53.152Z,85.90
2022-11-04T18:30:37.800Z,86.51
2022-11-04T18:37:17.235Z,86.58
2022-11-04T18:56:07.683Z,88.51
2022-11-04T19:02:04.094Z,88.70
2022-11-04T19:07:45.867Z,90.92
2022-11-04T19:13:22.544Z,92.27
2022-11-04T19:16:13.539Z,92.31
2022-11-04T19:19:03.455Z,92.67
2022-11-04T19:21:53.228Z,93.18
2022-11-04T19:27:33.590Z,94.89
2022-11-04T19:30:22.195Z,94.34
2022-11-04T19:33:12.237Z,95.71
2022-11-04T19:38:50.968Z,95.87
2022-11-04T19:41:58.034Z,97.07
2022-11-04T19:44:59.001Z,98.57
2022-11-04T19:47:49.799Z,99.02
2022-11-04T19:53:30.733Z,98.80
2022-11-04T19:59:07.756Z,100.00
2022-11-04T20:01:57.241Z,100.00
2022-11-04T20:07:32.807Z,100.00
2022-11-04T20:16:00.068Z,100.00
2022-11-04T20:19:01.191Z,100.00
2022-11-04T20:21:50.304Z,100.00
2022-11-04T20:27:21.990Z,100.00
2022-11-04T20:32:57.069Z,100.00
2022-11-04T20:35:47.628Z,100.00
2022-11-04T20:38:38.969Z,97.53
2022-11-04T20:44:25.906Z,99.18
2022-11-04T20:47:18.039Z,99.75
2022-11-04T20:53:03.124Z,99.22
2022-11-04T20:56:06.552Z,99.67
2022-11-04T20:58:59.728Z,97.91
2022-11-04T21:02:00.133Z,97.35
2022-11-04T21:07:36.315Z,97.22
2022-11-04T21:13:11.072Z,98.36
2022-11-04T21:16:06.477Z,98.27
2022-11-04T21:18:55.200Z,99.20
2022-11-04T21:21:49.853Z,98.73
2022-11-04T21:27:31.155Z,98.36
2022-11-04T21:30:20.944Z,98.18
2022-11-04T21:35:56.908Z,96.93
2022-11-04T21:41:46.045Z,98.34
2022-11-04T21:47:20.215Z,96.45
2022-11-04T21:50:17.701Z,95.85
2022-11-04T21:55:50.021Z,95.28
2022-11-04T22:01:22.240Z,95.60
2022-11-04T22:06:53.918Z,94.27
2022-11-04T22:12:25.903Z,93.28
2022-11-04T22:18:03.786Z,93.84
2022-11-04T22:23:36.279Z,93.14
2022-11-04T22:29:12.214Z,91.83
2022-11-04T22:34:45.032Z,90.56
2022-11-04T22:40:19.595Z,89.64
2022-11-04T22:45:51.001Z,89.13
2022-11-04T22:48:42.415Z,88.34
2022-11-04T22:51:33.555Z,86.62
2022-11-04T22:57:34.487Z,87.51
2022-11-04T23:03:06.336Z,87.89
2022-11-04T23:08:58.374Z,87.60
2022-11-04T23:14:42.712Z,87.88
2022-11-04T23:17:51.116Z,88.10
2022-11-04T23:23:53.264Z,86.12
2022-11-04T23:29:47.742Z,86.74
2022-11-04T23:35:34.470Z,86.67
2022-11-04T23:41:29.174Z,86.08
2022-11-04T23:50:13.450Z,85.89
2022-11-04T23:56:04.041Z,85.15
